Time;durP1;ratioP1;P1;durP2;ratioP2;P2;SDS_P1;SDS_P2;PMS_P1;PMS_P2;Temp;Humidity;BMP_temperature;BMP_pressure;BME280_temperature;BME280_humidity;BME280_pressure;Samples;Min_cycle;Max_cycle;Signal;HPM_P1;HPM_P2
2023/01/16 00:00:29;;;;;;;4.00;0.70;;;;;;;5.39;74.68;99123.20;106413;1257;60351;-78
2023/01/16 00:02:56;;;;;;;3.10;0.50;;;;;;;5.36;74.86;99118.05;106509;1254;72476;-76
2023/01/16 00:05:23;;;;;;;4.20;0.70;;;;;;;5.32;74.99;99113.46;106251;1254;71227;-76
2023/01/16 00:07:50;;;;;;;2.30;0.80;;;;;;;5.29;74.79;99112.38;106172;1254;71144;-78
2023/01/16 00:10:17;;;;;;;2.60;0.90;;;;;;;5.28;74.67;99104.76;106232;1253;60472;-76
2023/01/16 00:12:47;;;;;;;4.60;1.00;;;;;;;5.26;74.38;99103.55;106689;1254;60443;-80
2023/01/16 00:15:15;;;;;;;2.60;0.60;;;;;;;5.25;74.35;99099.65;106495;1253;74484;-79
2023/01/16 00:17:42;;;;;;;2.50;0.70;;;;;;;5.25;74.27;99093.18;106069;1260;70904;-77
2023/01/16 00:20:09;;;;;;;4.10;0.70;;;;;;;5.23;74.17;99091.37;106126;1254;73575;-76
2023/01/16 00:22:36;;;;;;;2.00;0.70;;;;;;;5.24;73.92;99088.03;106212;1254;60538;-77
2023/01/16 00:25:04;;;;;;;3.50;0.70;;;;;;;5.26;73.90;99080.66;106428;1254;60543;-77
2023/01/16 00:27:31;;;;;;;2.40;0.70;;;;;;;5.27;73.89;99077.73;106286;1260;73558;-77
2023/01/16 00:29:58;;;;;;;2.40;0.60;;;;;;;5.27;73.71;99069.10;106633;1254;70940;-78
2023/01/16 00:32:25;;;;;;;3.10;0.80;;;;;;;5.29;73.66;99067.88;106149;1261;71056;-78
2023/01/16 00:34:52;;;;;;;3.50;0.80;;;;;;;5.30;73.44;99068.95;106424;1254;60479;-77
2023/01/16 00:37:19;;;;;;;2.60;0.60;;;;;;;5.31;73.48;99062.34;106280;1254;60535;-77
2023/01/16 00:39:46;;;;;;;3.00;0.60;;;;;;;5.31;73.52;99059.73;106117;1257;71941;-77
2023/01/16 00:42:14;;;;;;;3.40;0.70;;;;;;;5.32;73.32;99051.09;106790;1258;70916;-78
2023/01/16 00:44:42;;;;;;;2.70;0.70;;;;;;;5.32;73.28;99050.34;106467;1254;74803;-79
2023/01/16 00:47:09;;;;;;;2.70;0.70;;;;;;;5.33;73.19;99046.53;107288;1254;61297;-77
2023/01/16 00:49:38;;;;;;;2.20;0.80;;;;;;;5.33;73.25;99040.23;106679;1254;60377;-78
2023/01/16 00:52:05;;;;;;;3.00;0.80;;;;;;;5.30;73.48;99041.11;106578;1257;73347;-78
2023/01/16 00:54:36;;;;;;;3.00;0.80;;;;;;;5.25;73.47;99047.29;106596;1254;71029;-78
2023/01/16 00:57:03;;;;;;;2.10;0.60;;;;;;;5.22;73.62;99042.61;106763;1254;72744;-78
2023/01/16 00:59:30;;;;;;;3.00;0.70;;;;;;;5.16;73.90;99044.52;106415;1253;60931;-76
2023/01/16 01:01:57;;;;;;;2.70;0.70;;;;;;;5.14;73.99;99045.98;106726;1254;60640;-77
2023/01/16 01:04:24;;;;;;;4.00;0.80;;;;;;;5.11;74.09;99052.49;106372;1253;72642;-77
2023/01/16 01:06:51;;;;;;;3.40;0.70;;;;;;;5.08;74.48;99049.80;106895;1254;69870;-77
2023/01/16 01:09:19;;;;;;;2.20;0.80;;;;;;;5.07;74.57;99049.40;106617;1254;71881;-77
2023/01/16 01:11:46;;;;;;;2.10;0.70;;;;;;;5.10;74.55;99049.13;106596;1253;60384;-78
2023/01/16 01:14:13;;;;;;;3.30;0.70;;;;;;;5.11;74.55;99046.83;106476;1254;60556;-77
2023/01/16 01:16:40;;;;;;;2.90;0.80;;;;;;;5.15;74.62;99045.73;106567;1254;75099;-78
2023/01/16 01:19:07;;;;;;;2.50;0.70;;;;;;;5.17;74.68;99047.33;106454;1254;69744;-76
2023/01/16 01:21:34;;;;;;;4.60;0.80;;;;;;;5.20;74.47;99048.25;106318;1254;72419;-78
2023/01/16 01:24:02;;;;;;;3.00;0.70;;;;;;;5.24;74.31;99045.16;106377;1254;60965;-78
2023/01/16 01:26:29;;;;;;;3.30;1.10;;;;;;;5.26;74.35;99041.38;106687;1254;60387;-76
2023/01/16 01:28:56;;;;;;;2.70;0.70;;;;;;;5.28;74.21;99038.83;106414;1254;72495;-77
2023/01/16 01:31:23;;;;;;;6.10;1.00;;;;;;;5.30;74.23;99037.39;106785;1254;70916;-78
2023/01/16 01:33:51;;;;;;;4.00;0.80;;;;;;;5.31;74.35;99039.27;106300;1254;72458;-77
2023/01/16 01:36:18;;;;;;;4.50;0.90;;;;;;;5.30;74.68;99030.80;106444;1254;61535;-76
2023/01/16 01:38:46;;;;;;;3.00;1.00;;;;;;;5.26;75.23;99023.84;106348;1254;60950;-77
2023/01/16 01:41:13;;;;;;;2.50;0.80;;;;;;;5.23;75.98;99019.55;106397;1254;73915;-78
2023/01/16 01:43:47;;;;;;;4.60;0.90;;;;;;;5.19;76.32;99013.49;106901;1257;69098;-79
2023/01/16 01:46:41;;;;;;;3.10;0.70;;;;;;;5.15;77.01;99006.25;106306;1254;72430;-77
2023/01/16 01:49:21;;;;;;;2.40;0.60;;;;;;;5.09;77.31;99005.73;107180;1254;60814;-77
2023/01/16 01:51:49;;;;;;;2.50;0.50;;;;;;;5.02;77.59;99001.79;106877;1254;60571;-77
2023/01/16 01:54:26;;;;;;;3.60;0.70;;;;;;;4.99;77.80;98999.20;106679;1253;73968;-77
2023/01/16 01:57:06;;;;;;;3.90;0.90;;;;;;;4.97;78.02;98991.20;106923;1254;70929;-79
2023/01/16 02:00:15;;;;;;;3.00;0.70;;;;;;;4.93;78.17;98990.70;107478;1254;72913;-77
2023/01/16 02:02:51;;;;;;;3.50;1.20;;;;;;;4.84;78.72;98983.74;107473;1254;60373;-76
2023/01/16 02:05:25;;;;;;;4.60;0.80;;;;;;;4.82;78.58;98968.04;107060;1254;60322;-76
2023/01/16 02:07:53;;;;;;;4.40;0.90;;;;;;;4.79;78.92;98967.95;106898;1254;74010;-77
2023/01/16 02:10:45;;;;;;;3.50;0.70;;;;;;;4.75;78.88;98965.58;106763;1256;71898;-78
2023/01/16 02:13:13;;;;;;;2.90;1.00;;;;;;;4.69;78.89;98960.29;107006;1254;72385;-79
2023/01/16 02:19:14;;;;;;;3.60;0.90;;;;;;;4.64;79.31;98956.83;107171;1253;60297;-76
2023/01/16 02:21:26;;;;;;;5.10;0.80;;;;;;;4.57;79.59;98955.83;106816;1254;72853;-78
2023/01/16 02:24:05;;;;;;;3.90;0.80;;;;;;;4.52;79.99;98950.05;106661;1254;71014;-78
2023/01/16 02:26:57;;;;;;;4.40;0.90;;;;;;;4.50;79.91;98947.30;106467;1256;70631;-77
2023/01/16 02:29:52;;;;;;;3.60;0.80;;;;;;;4.49;80.12;98949.73;106384;1254;60918;-77
2023/01/16 02:32:45;;;;;;;2.70;0.80;;;;;;;4.47;80.26;98941.17;106499;1254;61129;-77
2023/01/16 02:35:34;;;;;;;2.60;1.00;;;;;;;4.45;80.60;98938.44;107459;1256;73008;-78
2023/01/16 02:38:33;;;;;;;4.10;0.90;;;;;;;4.43;80.51;98933.27;106726;1256;71327;-77
2023/01/16 02:41:24;;;;;;;3.80;0.70;;;;;;;4.42;80.65;98927.23;106763;1254;72622;-78
2023/01/16 02:44:00;;;;;;;4.00;0.90;;;;;;;4.40;80.92;98927.09;106776;1254;59983;-76
2023/01/16 02:46:35;;;;;;;4.20;0.80;;;;;;;4.39;80.95;98915.52;106743;1254;61388;-77
2023/01/16 02:49:22;;;;;;;3.20;1.00;;;;;;;4.38;80.63;98905.05;106548;1257;73609;-77
2023/01/16 02:51:58;;;;;;;2.60;0.60;;;;;;;4.35;81.24;98900.06;107066;1254;70231;-77
2023/01/16 02:54:55;;;;;;;3.90;1.00;;;;;;;4.31;81.56;98890.39;106537;1256;72556;-77
2023/01/16 02:57:28;;;;;;;4.00;0.80;;;;;;;4.27;81.80;98883.84;106424;1254;60863;-79
2023/01/16 02:59:56;;;;;;;3.80;1.00;;;;;;;4.26;81.96;98880.11;106521;1255;60563;-79
2023/01/16 03:02:23;;;;;;;3.80;0.70;;;;;;;4.27;82.02;98878.71;106653;1254;72397;-78
2023/01/16 03:04:52;;;;;;;3.80;0.90;;;;;;;4.30;81.87;98874.39;106965;1254;72445;-77
2023/01/16 03:07:45;;;;;;;4.80;0.90;;;;;;;4.33;81.79;98866.55;106731;1256;71974;-78
2023/01/16 03:10:50;;;;;;;3.70;0.70;;;;;;;4.37;81.78;98863.91;106671;1256;60912;-77
2023/01/16 03:13:49;;;;;;;3.20;0.80;;;;;;;4.42;81.68;98862.13;106752;1256;60924;-77
2023/01/16 03:16:28;;;;;;;3.90;1.20;;;;;;;4.47;81.80;98866.63;106644;1254;73865;-77
2023/01/16 03:19:27;;;;;;;2.60;0.80;;;;;;;4.49;81.99;98858.69;106429;1254;69915;-77
2023/01/16 03:22:00;;;;;;;3.20;0.90;;;;;;;4.48;82.49;98856.28;106373;1254;72570;-77
2023/01/16 03:24:30;;;;;;;3.60;1.00;;;;;;;4.48;82.89;98853.13;106627;1255;60416;-76
2023/01/16 03:27:21;;;;;;;2.60;0.90;;;;;;;4.48;82.95;98852.30;106810;1254;60552;-76
2023/01/16 03:29:59;;;;;;;3.80;1.00;;;;;;;4.48;82.99;98857.52;106529;1259;73301;-77
2023/01/16 03:33:05;;;;;;;1.90;0.70;;;;;;;4.50;83.41;98856.06;106449;1254;70907;-76
2023/01/16 03:35:38;;;;;;;2.10;0.60;;;;;;;4.52;84.13;98854.14;106162;1262;71443;-77
2023/01/16 03:38:11;;;;;;;3.20;0.80;;;;;;;4.53;84.86;98850.60;106021;1262;61270;-79
2023/01/16 03:40:44;;;;;;;3.80;0.80;;;;;;;4.52;85.18;98841.33;106345;1254;60931;-79
2023/01/16 03:43:22;;;;;;;2.80;0.70;;;;;;;4.52;85.37;98832.16;106643;1254;73925;-77
2023/01/16 03:45:55;;;;;;;2.80;0.80;;;;;;;4.51;85.32;98823.06;106701;1254;71281;-78
2023/01/16 03:48:36;;;;;;;3.20;0.80;;;;;;;4.50;85.46;98820.42;106716;1254;71892;-78
2023/01/16 03:51:07;;;;;;;2.70;0.70;;;;;;;4.44;85.84;98817.20;106922;1254;60986;-79
2023/01/16 03:53:44;;;;;;;3.50;0.60;;;;;;;4.41;85.66;98809.60;106739;1254;60720;-78
2023/01/16 03:56:21;;;;;;;4.00;0.80;;;;;;;4.38;85.72;98800.80;106362;1261;73563;-78
2023/01/16 03:58:54;;;;;;;2.80;0.80;;;;;;;4.37;85.65;98800.58;106531;1254;71170;-77
2023/01/16 04:01:38;;;;;;;2.40;0.80;;;;;;;4.34;85.88;98799.77;106589;1254;73191;-78
2023/01/16 04:04:11;;;;;;;2.60;0.80;;;;;;;4.31;86.07;98794.23;107112;1254;61014;-77
2023/01/16 04:06:45;;;;;;;2.50;0.70;;;;;;;4.28;85.79;98789.00;106602;1254;60868;-77
2023/01/16 04:09:29;;;;;;;3.40;0.80;;;;;;;4.23;86.29;98781.91;106692;1256;73838;-79
2023/01/16 04:11:58;;;;;;;1.50;0.60;;;;;;;4.15;86.30;98783.44;106884;1254;70899;-77
2023/01/16 04:14:28;;;;;;;2.70;0.70;;;;;;;4.07;86.59;98780.80;107023;1255;72128;-79
2023/01/16 04:16:58;;;;;;;2.60;0.70;;;;;;;3.99;86.60;98777.77;106631;1254;60546;-79
2023/01/16 04:19:27;;;;;;;2.60;0.80;;;;;;;3.93;86.70;98777.45;106790;1254;60963;-78
2023/01/16 04:21:53;;;;;;;4.10;0.90;;;;;;;3.87;86.69;98771.26;106755;1254;74243;-78
2023/01/16 04:24:21;;;;;;;2.30;1.00;;;;;;;3.81;86.79;98765.44;107243;1254;70037;-78
2023/01/16 04:26:52;;;;;;;2.60;0.60;;;;;;;3.77;86.91;98762.80;106788;1258;72486;-79
2023/01/16 04:29:18;;;;;;;3.00;0.80;;;;;;;3.76;86.80;98754.59;106389;1256;60556;-77
2023/01/16 04:31:45;;;;;;;2.10;0.70;;;;;;;3.74;86.89;98748.31;106722;1254;60477;-77
2023/01/16 04:34:13;;;;;;;3.10;0.80;;;;;;;3.73;87.03;98747.04;106740;1254;72603;-79
2023/01/16 04:36:42;;;;;;;2.40;0.60;;;;;;;3.72;87.37;98747.16;106528;1254;70900;-78
2023/01/16 04:39:09;;;;;;;3.30;0.80;;;;;;;3.75;87.51;98739.80;106865;1258;72469;-78
2023/01/16 04:41:36;;;;;;;3.50;0.90;;;;;;;3.80;87.43;98739.92;107260;1254;60909;-78
2023/01/16 04:44:05;;;;;;;2.60;0.80;;;;;;;3.85;87.32;98734.83;107174;1254;60440;-79
2023/01/16 04:46:37;;;;;;;2.50;0.70;;;;;;;3.91;87.05;98729.23;106672;1254;73067;-78
2023/01/16 04:49:05;;;;;;;2.00;0.70;;;;;;;3.96;86.86;98722.07;106669;1254;71039;-79
2023/01/16 04:51:34;;;;;;;3.80;0.70;;;;;;;4.01;86.82;98717.34;106310;1254;73246;-77
2023/01/16 04:54:02;;;;;;;2.60;0.90;;;;;;;4.05;86.18;98714.09;106837;1254;61701;-78
2023/01/16 04:56:30;;;;;;;4.30;0.80;;;;;;;4.06;86.02;98705.21;106767;1254;60622;-78
2023/01/16 04:58:57;;;;;;;1.40;0.60;;;;;;;4.05;85.86;98696.17;106950;1254;72738;-79
2023/01/16 05:01:25;;;;;;;2.30;0.60;;;;;;;4.03;85.72;98696.70;106493;1255;69907;-79
2023/01/16 05:03:52;;;;;;;1.70;0.60;;;;;;;3.99;85.66;98697.42;106786;1254;72273;-78
2023/01/16 05:06:22;;;;;;;2.50;0.80;;;;;;;3.96;85.88;98691.40;106562;1254;61588;-78
2023/01/16 05:08:49;;;;;;;2.30;0.70;;;;;;;3.94;85.83;98686.89;106319;1254;60925;-79
2023/01/16 05:11:19;;;;;;;3.30;0.80;;;;;;;3.91;85.93;98682.21;106499;1256;72325;-78
2023/01/16 05:13:46;;;;;;;5.10;1.10;;;;;;;3.88;85.96;98680.24;106534;1254;70990;-79
2023/01/16 05:16:15;;;;;;;4.50;0.80;;;;;;;3.84;86.07;98677.04;106580;1254;72562;-78
2023/01/16 05:18:43;;;;;;;2.20;0.60;;;;;;;3.82;86.10;98667.48;106654;1254;60759;-77
2023/01/16 05:21:10;;;;;;;1.90;0.90;;;;;;;3.79;86.18;98668.02;106743;1258;60560;-77
2023/01/16 05:23:46;;;;;;;2.50;1.10;;;;;;;3.75;86.01;98669.86;106540;1260;73961;-77
2023/01/16 05:26:16;;;;;;;3.40;0.80;;;;;;;3.72;86.26;98668.35;106543;1256;70003;-78
2023/01/16 05:28:44;;;;;;;2.50;0.80;;;;;;;3.66;86.75;98675.39;106479;1257;73481;-79
2023/01/16 05:31:18;;;;;;;2.40;0.80;;;;;;;3.65;86.75;98670.80;107039;1254;59671;-78
2023/01/16 05:33:45;;;;;;;2.30;0.80;;;;;;;3.63;86.80;98668.48;106934;1254;60546;-76
2023/01/16 05:36:12;;;;;;;2.50;0.60;;;;;;;3.60;86.65;98659.92;106476;1254;71804;-77
2023/01/16 05:38:41;;;;;;;4.00;0.90;;;;;;;3.59;86.81;98652.55;106784;1256;71199;-80
2023/01/16 05:41:11;;;;;;;2.50;0.60;;;;;;;3.58;86.80;98650.17;106730;1254;72506;-79
2023/01/16 05:43:37;;;;;;;1.80;0.80;;;;;;;3.57;86.79;98652.11;106979;1259;59451;-78
2023/01/16 05:46:04;;;;;;;2.60;0.70;;;;;;;3.56;86.75;98654.66;107099;1254;60387;-78
2023/01/16 05:48:32;;;;;;;2.40;0.70;;;;;;;3.54;86.84;98650.15;108564;1254;73858;-77
2023/01/16 05:51:01;;;;;;;2.60;0.90;;;;;;;3.53;86.82;98641.11;107028;1259;69703;-78
2023/01/16 05:53:29;;;;;;;2.30;0.70;;;;;;;3.53;86.97;98642.27;107090;1254;71136;-78
2023/01/16 05:55:57;;;;;;;1.40;0.70;;;;;;;3.53;86.63;98634.14;108144;1254;62363;-77
2023/01/16 05:58:45;;;;;;;2.40;0.70;;;;;;;3.54;86.67;98631.80;106869;1254;60828;-79
2023/01/16 06:01:12;;;;;;;2.40;0.80;;;;;;;3.54;86.91;98625.88;107711;1254;72633;-78
2023/01/16 06:03:39;;;;;;;2.70;0.80;;;;;;;3.52;87.16;98623.59;107465;1254;71526;-79
2023/01/16 06:06:07;;;;;;;2.30;0.60;;;;;;;3.53;87.15;98623.55;108247;1254;72708;-78
2023/01/16 06:08:36;;;;;;;2.90;0.90;;;;;;;3.54;87.34;98625.31;106718;1254;61732;-78
2023/01/16 06:11:04;;;;;;;2.40;0.90;;;;;;;3.55;87.35;98615.90;107824;1257;60286;-79
2023/01/16 06:13:32;;;;;;;2.70;0.70;;;;;;;3.60;88.17;98616.98;106918;1254;72748;-77
2023/01/16 06:16:08;;;;;;;2.80;0.70;;;;;;;3.63;88.66;98612.02;107057;1255;70017;-79
2023/01/16 06:18:35;;;;;;;2.50;0.70;;;;;;;3.65;89.28;98603.92;107745;1254;73619;-78
2023/01/16 06:21:02;;;;;;;1.60;0.50;;;;;;;3.64;89.98;98597.55;108637;1260;60988;-78
2023/01/16 06:23:30;;;;;;;2.40;0.70;;;;;;;3.62;90.54;98596.71;107949;1254;60255;-78
2023/01/16 06:26:02;;;;;;;1.50;0.50;;;;;;;3.60;91.19;98593.90;106619;1254;73871;-79
2023/01/16 06:28:29;;;;;;;0.90;0.40;;;;;;;3.55;91.98;98591.29;107002;1254;72462;-78
2023/01/16 06:30:56;;;;;;;2.30;0.50;;;;;;;3.51;91.85;98585.30;107354;1251;70631;-79
2023/01/16 06:33:23;;;;;;;1.60;0.50;;;;;;;3.47;92.23;98580.86;107816;1252;60478;-77
2023/01/16 06:35:53;;;;;;;0.50;0.30;;;;;;;3.43;92.64;98578.34;107002;1255;60360;-79
2023/01/16 06:38:20;;;;;;;0.90;0.40;;;;;;;3.37;93.00;98572.94;106597;1254;72362;-78
2023/01/16 06:40:47;;;;;;;2.10;0.50;;;;;;;3.35;92.91;98569.92;106948;1253;69699;-78
2023/01/16 06:43:16;;;;;;;2.20;0.50;;;;;;;3.30;92.79;98563.29;107408;1252;71889;-78
2023/01/16 06:45:44;;;;;;;1.60;0.50;;;;;;;3.27;92.92;98557.77;106781;1253;61182;-77
2023/01/16 06:48:12;;;;;;;2.10;0.70;;;;;;;3.24;92.71;98558.34;106938;1254;60790;-78
2023/01/16 06:50:39;;;;;;;1.70;0.70;;;;;;;3.23;92.81;98549.61;107144;1256;75028;-77
2023/01/16 06:53:06;;;;;;;2.90;0.60;;;;;;;3.24;92.82;98544.38;106816;1254;69640;-78
2023/01/16 06:55:33;;;;;;;3.00;0.80;;;;;;;3.25;92.69;98541.45;106524;1253;72870;-78
2023/01/16 06:58:00;;;;;;;1.90;0.60;;;;;;;3.25;92.88;98541.65;106972;1256;60535;-75
2023/01/16 07:00:27;;;;;;;2.20;1.00;;;;;;;3.24;93.05;98534.63;106749;1258;61549;-75
2023/01/16 07:02:56;;;;;;;2.50;1.10;;;;;;;3.23;93.57;98529.33;107032;1254;72326;-75
2023/01/16 07:05:25;;;;;;;3.50;1.20;;;;;;;3.19;93.66;98526.21;107009;1254;71998;-76
2023/01/16 07:07:53;;;;;;;2.30;1.00;;;;;;;3.14;93.65;98520.79;107234;1253;72183;-75
2023/01/16 07:10:21;;;;;;;3.20;0.90;;;;;;;3.10;93.88;98523.38;106815;1253;60254;-74
2023/01/16 07:12:50;;;;;;;3.20;1.00;;;;;;;3.07;94.00;98522.05;107112;1254;61728;-75
2023/01/16 07:24:04;;;;;;;3.20;0.90;;;;;;;3.00;94.78;98517.09;107019;1254;60914;-74
2023/01/16 07:26:33;;;;;;;3.90;1.00;;;;;;;3.01;95.12;98514.64;107394;1253;60450;-75
2023/01/16 07:29:02;;;;;;;3.10;1.00;;;;;;;3.04;95.22;98511.70;107131;1256;73550;-75
2023/01/16 07:31:31;;;;;;;2.10;0.80;;;;;;;3.06;94.87;98501.54;106919;1254;69939;-76
2023/01/16 07:34:09;;;;;;;3.80;1.30;;;;;;;3.07;94.41;98494.01;106835;1252;72384;-75
2023/01/16 07:36:35;;;;;;;2.80;1.00;;;;;;;3.08;94.39;98483.98;106868;1254;61000;-75
2023/01/16 07:39:03;;;;;;;3.60;1.40;;;;;;;3.05;94.59;98479.73;107012;1254;60533;-75
2023/01/16 07:41:30;;;;;;;4.10;1.50;;;;;;;3.04;94.36;98473.83;106656;1260;73018;-74
2023/01/16 07:44:00;;;;;;;4.80;1.00;;;;;;;3.04;94.32;98464.88;106712;1260;71181;-74
2023/01/16 07:46:27;;;;;;;3.50;1.10;;;;;;;3.06;94.38;98468.81;107046;1254;72374;-74
2023/01/16 07:48:56;;;;;;;4.30;1.10;;;;;;;3.09;94.04;98467.12;106987;1255;60805;-75
2023/01/16 07:51:23;;;;;;;2.90;1.00;;;;;;;3.12;94.14;98454.47;107002;1254;60401;-75
2023/01/16 07:53:50;;;;;;;4.40;1.10;;;;;;;3.18;93.94;98453.33;106944;1253;74177;-75
2023/01/16 07:56:20;;;;;;;2.80;0.90;;;;;;;3.23;93.93;98449.89;107023;1256;71480;-76
2023/01/16 07:58:49;;;;;;;4.40;1.20;;;;;;;3.28;93.76;98446.75;106962;1255;72868;-76
2023/01/16 08:01:19;;;;;;;3.30;1.10;;;;;;;3.33;93.56;98443.14;107435;1253;62355;-74
2023/01/16 08:03:46;;;;;;;2.70;1.00;;;;;;;3.40;93.35;98443.87;107172;1252;60448;-76
2023/01/16 08:06:13;;;;;;;4.00;0.90;;;;;;;3.48;92.83;98443.60;106886;1253;72472;-74
2023/01/16 08:08:43;;;;;;;3.20;0.80;;;;;;;3.54;92.78;98433.79;106907;1257;69808;-75
2023/01/16 08:13:55;;;;;;;3.90;1.20;;;;;;;3.70;92.15;98421.05;107116;1253;61680;-75
2023/01/16 08:16:22;;;;;;;2.70;0.80;;;;;;;3.76;91.72;98414.16;106913;1257;60413;-74
2023/01/16 08:18:49;;;;;;;4.10;1.00;;;;;;;3.83;91.23;98409.79;107326;1254;72690;-74
2023/01/16 08:21:16;;;;;;;1.60;0.60;;;;;;;3.90;90.77;98412.88;107196;1254;73258;-75
2023/01/16 08:23:43;;;;;;;3.50;1.00;;;;;;;3.93;90.33;98406.70;107141;1252;72388;-75
2023/01/16 08:26:14;;;;;;;3.00;0.90;;;;;;;3.97;89.96;98406.20;106991;1253;61273;-75
2023/01/16 08:28:41;;;;;;;4.00;1.30;;;;;;;4.01;89.63;98408.46;106967;1254;59336;-71
2023/01/16 08:31:13;;;;;;;3.20;0.80;;;;;;;4.07;89.46;98403.75;106865;1254;71819;-74
2023/01/16 08:33:42;;;;;;;2.90;0.90;;;;;;;4.14;89.21;98404.80;107124;1253;72639;-74
2023/01/16 08:36:11;;;;;;;2.50;0.90;;;;;;;4.22;89.25;98396.31;107019;1254;71452;-74
2023/01/16 08:38:38;;;;;;;4.10;1.00;;;;;;;4.28;88.67;98390.27;106600;1254;61104;-73
2023/01/16 08:51:21;;;;;;;3.50;0.80;;;;;;;4.34;88.63;98383.60;107077;1254;60422;-74
2023/01/16 08:52:11;;;;;;;3.60;1.40;;;;;;;4.68;86.30;98356.90;106895;1258;60311;-77
2023/01/16 08:54:38;;;;;;;3.30;1.10;;;;;;;4.70;85.88;98349.08;107034;1254;60428;-75
2023/01/16 08:57:05;;;;;;;3.10;1.00;;;;;;;4.75;85.53;98345.95;106635;1256;73880;-77
2023/01/16 08:59:33;;;;;;;3.30;1.10;;;;;;;4.77;85.51;98345.52;106484;1259;69959;-75
2023/01/16 09:02:10;;;;;;;3.50;1.30;;;;;;;4.81;85.38;98347.88;106701;1254;71923;-76
2023/01/16 09:04:37;;;;;;;3.20;1.00;;;;;;;4.86;85.32;98339.05;106569;1254;61344;-73
2023/01/16 09:07:04;;;;;;;2.00;0.80;;;;;;;4.89;85.29;98336.22;106829;1256;61322;-75
2023/01/16 09:09:31;;;;;;;3.00;0.70;;;;;;;4.92;84.93;98330.58;106618;1259;73860;-76
2023/01/16 09:14:44;;;;;;;1.90;0.80;;;;;;;5.00;85.17;98332.02;106727;1253;70435;-76
2023/01/16 09:17:10;;;;;;;2.70;0.80;;;;;;;5.04;85.03;98328.13;106964;1252;61462;-76
2023/01/16 09:19:37;;;;;;;3.30;0.80;;;;;;;5.09;85.01;98326.77;106978;1253;60415;-77
2023/01/16 09:22:08;;;;;;;2.30;1.00;;;;;;;5.13;84.77;98319.77;106664;1253;72002;-77
2023/01/16 09:24:35;;;;;;;2.10;0.80;;;;;;;5.19;84.35;98319.88;106666;1254;71845;-77
2023/01/16 09:27:02;;;;;;;3.50;0.80;;;;;;;5.22;83.76;98320.13;106741;1253;73844;-76
2023/01/16 09:29:30;;;;;;;3.80;0.90;;;;;;;5.27;83.48;98319.25;106881;1253;60913;-76
2023/01/16 09:31:58;;;;;;;3.50;0.90;;;;;;;5.33;83.05;98317.99;106821;1252;61867;-76
2023/01/16 09:34:25;;;;;;;3.30;0.80;;;;;;;5.35;82.75;98314.36;106537;1254;72654;-76
2023/01/16 09:36:52;;;;;;;3.40;0.80;;;;;;;5.36;82.61;98311.62;106568;1254;72460;-76
2023/01/16 09:39:19;;;;;;;3.10;0.90;;;;;;;5.36;82.39;98306.55;106685;1254;72653;-74
2023/01/16 09:45:04;;;;;;;3.20;0.80;;;;;;;5.34;82.06;98293.81;107063;1253;60556;-76
2023/01/16 09:47:33;;;;;;;2.60;0.70;;;;;;;5.37;81.30;98286.66;107713;1254;73959;-75
2023/01/16 09:50:32;;;;;;;1.90;0.60;;;;;;;5.37;81.49;98284.44;107063;1253;70368;-77
2023/01/16 09:58:39;;;;;;;3.30;0.80;;;;;;;5.45;80.99;98259.56;106970;1254;60518;-76
2023/01/16 10:01:19;;;;;;;2.70;0.80;;;;;;;5.47;80.63;98254.63;106625;1259;73884;-76
2023/01/16 10:03:46;;;;;;;2.40;0.80;;;;;;;5.48;80.48;98246.95;106582;1254;68967;-75
2023/01/16 10:06:37;;;;;;;3.20;0.90;;;;;;;5.53;80.85;98240.84;107183;1253;73076;-74
2023/01/16 10:09:21;;;;;;;2.70;0.70;;;;;;;5.56;80.14;98229.59;106940;1254;60540;-75
2023/01/16 10:12:03;;;;;;;2.90;0.70;;;;;;;5.59;80.20;98218.98;106562;1259;61755;-77
2023/01/16 10:14:53;;;;;;;2.70;0.70;;;;;;;5.62;79.94;98205.11;106593;1254;71378;-77
2023/01/16 10:17:42;;;;;;;2.00;0.80;;;;;;;5.65;79.13;98198.34;106688;1254;69986;-79
2023/01/16 10:20:37;;;;;;;2.00;0.60;;;;;;;5.69;78.86;98184.17;106800;1254;72653;-75
2023/01/16 10:23:04;;;;;;;3.20;0.90;;;;;;;5.71;78.84;98172.84;106783;1253;61035;-76
2023/01/16 10:25:43;;;;;;;2.80;0.80;;;;;;;5.75;78.75;98169.30;107342;1254;60526;-76
2023/01/16 10:28:32;;;;;;;2.70;1.00;;;;;;;5.85;78.68;98166.66;107000;1254;74033;-78
2023/01/16 10:31:24;;;;;;;2.80;0.80;;;;;;;5.95;78.47;98160.05;106412;1260;71247;-76
2023/01/16 10:34:00;;;;;;;2.00;0.90;;;;;;;6.02;78.09;98152.06;106816;1254;73006;-77
2023/01/16 10:36:33;;;;;;;2.80;0.80;;;;;;;6.16;78.37;98146.88;106763;1254;60480;-77
2023/01/16 10:39:01;;;;;;;3.10;0.90;;;;;;;6.29;78.02;98137.73;106827;1259;60913;-75
2023/01/16 10:50:12;;;;;;;2.00;0.80;;;;;;;6.38;74.22;98104.73;107408;1253;60468;-76
2023/01/16 10:52:40;;;;;;;3.10;0.90;;;;;;;6.35;74.06;98091.05;106896;1254;60390;-75
2023/01/16 10:55:09;;;;;;;2.60;0.90;;;;;;;6.34;74.13;98082.95;106857;1259;72763;-76
2023/01/16 10:57:45;;;;;;;3.20;1.00;;;;;;;6.31;74.43;98069.84;106825;1259;72518;-76
2023/01/16 11:00:29;;;;;;;2.30;0.80;;;;;;;6.28;75.12;98067.80;106832;1259;72664;-77
2023/01/16 11:03:13;;;;;;;2.40;0.70;;;;;;;6.24;75.41;98056.93;107083;1254;61610;-76
2023/01/16 11:05:40;;;;;;;2.10;0.60;;;;;;;6.21;75.64;98044.22;106927;1253;60482;-76
2023/01/16 11:08:19;;;;;;;2.50;0.60;;;;;;;6.18;74.85;98041.37;107188;1258;73608;-76
2023/01/16 11:10:48;;;;;;;2.90;0.60;;;;;;;6.15;74.92;98036.65;107037;1254;70046;-78
2023/01/16 11:19:23;;;;;;;1.70;0.50;;;;;;;6.05;73.81;98019.79;107513;1253;60450;-80
2023/01/16 11:21:55;;;;;;;1.80;0.60;;;;;;;6.03;73.63;98011.01;106788;1253;73650;-77
2023/01/16 11:24:32;;;;;;;2.30;0.50;;;;;;;6.06;73.60;98005.88;106963;1254;70432;-77
2023/01/16 11:27:01;;;;;;;2.60;0.80;;;;;;;6.09;73.32;97996.03;106932;1253;72427;-78
2023/01/16 11:29:38;;;;;;;4.30;0.60;;;;;;;6.13;73.05;97979.85;106644;1254;61471;-77
2023/01/16 11:32:09;;;;;;;3.10;0.60;;;;;;;6.16;72.45;97964.23;106959;1253;60470;-76
2023/01/16 11:34:39;;;;;;;3.60;0.50;;;;;;;6.21;72.44;97954.76;106616;1261;75016;-78
2023/01/16 11:37:12;;;;;;;2.40;0.60;;;;;;;6.24;72.16;97949.27;107381;1254;72501;-77
2023/01/16 11:39:40;;;;;;;2.90;0.70;;;;;;;6.27;71.63;97944.19;106709;1262;71496;-77
2023/01/16 11:46:02;;;;;;;2.50;0.80;;;;;;;6.33;71.19;97937.30;107406;1254;61013;-76
2023/01/16 11:47:54;;;;;;;2.80;1.00;;;;;;;6.39;70.97;97928.54;106860;1253;72298;-76
2023/01/16 11:50:33;;;;;;;2.60;1.00;;;;;;;6.41;71.15;97923.50;106837;1259;69876;-76
2023/01/16 11:52:59;;;;;;;2.40;0.90;;;;;;;6.43;70.80;97912.17;106925;1254;73083;-78
2023/01/16 11:55:38;;;;;;;2.40;0.80;;;;;;;6.44;70.75;97909.73;107289;1254;60864;-78
2023/01/16 11:58:45;;;;;;;3.90;0.80;;;;;;;6.43;69.42;97902.45;106919;1257;60752;-79
2023/01/16 12:05:53;;;;;;;2.30;0.90;;;;;;;6.52;69.42;97884.09;107093;1254;69995;-77
2023/01/16 12:07:43;;;;;;;1.50;0.60;;;;;;;6.56;68.93;97878.59;107492;1253;71765;-77
2023/01/16 12:10:45;;;;;;;2.30;0.70;;;;;;;6.60;69.44;97866.18;107400;1254;61283;-77
2023/01/16 12:16:31;;;;;;;1.10;0.40;;;;;;;6.60;67.74;97854.75;107070;1254;72325;-80
2023/01/16 12:19:32;;;;;;;3.20;0.60;;;;;;;6.70;68.34;97853.56;106670;1259;70968;-77
2023/01/16 12:22:37;;;;;;;2.70;0.70;;;;;;;6.70;67.02;97844.89;107983;1254;72370;-76
2023/01/16 12:25:42;;;;;;;1.90;0.50;;;;;;;6.77;66.85;97832.48;109061;1253;58708;-77
2023/01/16 12:28:40;;;;;;;2.10;0.70;;;;;;;6.87;66.40;97831.23;107142;1254;60682;-77
2023/01/16 12:31:31;;;;;;;1.20;0.50;;;;;;;6.92;66.76;97819.34;107150;1255;75284;-77
2023/01/16 12:34:13;;;;;;;2.40;0.70;;;;;;;6.99;66.58;97812.85;106865;1254;70821;-77
2023/01/16 12:36:43;;;;;;;1.10;0.50;;;;;;;7.01;66.13;97811.48;106801;1259;73619;-76
2023/01/16 12:39:25;;;;;;;1.90;0.60;;;;;;;7.09;66.35;97804.15;108195;1254;60351;-77
2023/01/16 12:45:28;;;;;;;2.60;0.70;;;;;;;7.32;65.62;97792.23;109244;1254;72406;-77
2023/01/16 12:48:13;;;;;;;1.90;0.50;;;;;;;7.42;65.95;97779.46;108886;1259;70505;-76
2023/01/16 12:50:56;;;;;;;2.00;0.50;;;;;;;7.47;64.82;97773.27;107169;1256;70827;-75
2023/01/16 12:53:23;;;;;;;2.20;0.70;;;;;;;7.62;64.84;97759.89;107306;1256;61782;-75
2023/01/16 12:56:18;;;;;;;2.10;0.60;;;;;;;7.81;64.30;97762.45;106799;1254;60455;-74
2023/01/16 12:58:54;;;;;;;1.50;0.40;;;;;;;8.01;64.10;97754.14;106821;1258;74879;-76
2023/01/16 13:01:26;;;;;;;2.10;0.60;;;;;;;8.22;63.55;97748.30;107117;1253;72830;-78
2023/01/16 13:03:58;;;;;;;2.50;0.70;;;;;;;8.63;62.37;97741.91;107259;1254;71164;-76